Time;durP1;ratioP1;P1;durP2;ratioP2;P2;SDS_P1;SDS_P2;PMS_P1;PMS_P2;Temp;Humidity;BMP_temperature;BMP_pressure;BME280_temperature;BME280_humidity;BME280_pressure;Samples;Min_cycle;Max_cycle;Signal;HPM_P1;HPM_P2
2021/08/06 00:00:54;;;;;;;3.15;2.78;;;;;24.80;100076.00;;;;5045866;28;20215;-78
2021/08/06 00:03:21;;;;;;;5.93;3.38;;;;;24.80;100067.00;;;;5048699;28;20202;-78
2021/08/06 00:05:48;;;;;;;3.17;2.67;;;;;24.80;100064.00;;;;5048932;28;20195;-78
2021/08/06 00:08:16;;;;;;;3.40;3.10;;;;;24.70;100069.00;;;;5042106;28;20613;-78
2021/08/06 00:10:43;;;;;;;4.20;3.38;;;;;24.70;100063.00;;;;5029615;28;20231;-78
2021/08/06 00:13:10;;;;;;;4.78;3.40;;;;;24.70;100067.00;;;;5030247;28;20383;-78
2021/08/06 00:15:37;;;;;;;5.15;3.20;;;;;24.70;100062.00;;;;5046783;28;20195;-78
2021/08/06 00:18:06;;;;;;;3.38;2.70;;;;;24.70;100064.00;;;;5048967;28;20204;-78
2021/08/06 00:20:35;;;;;;;4.13;2.63;;;;;24.70;100067.00;;;;5048360;28;20192;-77
2021/08/06 00:23:04;;;;;;;4.32;3.05;;;;;24.70;100060.00;;;;5047133;28;21019;-78
2021/08/06 00:25:32;;;;;;;3.92;3.53;;;;;24.70;100056.00;;;;5029836;28;20197;-78
2021/08/06 00:27:59;;;;;;;3.70;2.55;;;;;24.70;100062.00;;;;5046692;28;20245;-77
2021/08/06 00:30:27;;;;;;;4.45;2.65;;;;;24.70;100070.00;;;;5047210;28;20212;-78
2021/08/06 00:32:54;;;;;;;2.97;2.67;;;;;24.70;100064.00;;;;5048507;28;20199;-78
2021/08/06 00:35:23;;;;;;;5.82;2.95;;;;;24.60;100048.00;;;;5039678;28;20721;-78
2021/08/06 00:37:51;;;;;;;4.05;2.25;;;;;24.70;100053.00;;;;5038031;28;20208;-78
2021/08/06 00:40:18;;;;;;;2.50;2.30;;;;;24.60;100042.00;;;;5028991;28;20787;-79
2021/08/06 00:42:46;;;;;;;3.28;2.30;;;;;24.70;100041.00;;;;5043177;28;20192;-79
2021/08/06 00:45:13;;;;;;;2.85;2.40;;;;;24.60;100040.00;;;;5047248;28;20198;-79
2021/08/06 00:47:40;;;;;;;3.42;2.38;;;;;24.60;100036.00;;;;5049421;28;20199;-79
2021/08/06 00:50:09;;;;;;;3.35;2.85;;;;;24.60;100044.00;;;;5034027;28;20277;-79
2021/08/06 00:52:38;;;;;;;3.28;2.63;;;;;24.60;100045.00;;;;5037907;28;20231;-79
2021/08/06 00:55:06;;;;;;;3.05;2.42;;;;;24.60;100033.00;;;;5043018;28;20552;-79
2021/08/06 00:57:34;;;;;;;2.40;2.15;;;;;24.60;100033.00;;;;5046988;28;20207;-79
2021/08/06 01:00:01;;;;;;;2.65;2.38;;;;;24.70;100029.00;;;;5047360;28;20696;-80
2021/08/06 01:02:34;;;;;;;2.72;2.38;;;;;24.60;100031.00;;;;5048716;28;20210;-78
2021/08/06 01:05:07;;;;;;;3.03;2.58;;;;;24.60;100034.00;;;;5037519;28;20192;-79
2021/08/06 01:07:44;;;;;;;3.60;2.80;;;;;24.60;100023.00;;;;5033394;28;20606;-79
2021/08/06 01:10:13;;;;;;;2.50;2.20;;;;;24.60;100022.00;;;;5041472;28;20200;-80
2021/08/06 01:12:48;;;;;;;2.45;2.25;;;;;24.60;100021.00;;;;5048708;28;20227;-80
2021/08/06 01:15:16;;;;;;;2.45;2.25;;;;;24.70;100026.00;;;;5046753;28;20199;-79
2021/08/06 01:17:46;;;;;;;2.67;2.40;;;;;24.60;100019.00;;;;5048704;28;20206;-79
2021/08/06 01:20:17;;;;;;;2.67;2.03;;;;;24.70;100021.00;;;;5035716;28;20200;-79
2021/08/06 01:22:51;;;;;;;2.47;2.05;;;;;24.60;100031.00;;;;5036999;28;20220;-79
2021/08/06 01:25:45;;;;;;;2.33;2.10;;;;;24.60;100025.00;;;;5038443;28;20424;-78
2021/08/06 01:28:14;;;;;;;2.35;2.00;;;;;24.70;100022.00;;;;5039931;28;20239;-79
2021/08/06 01:30:42;;;;;;;3.50;2.22;;;;;24.70;100010.00;;;;5028213;28;20220;-79
2021/08/06 01:33:09;;;;;;;2.28;1.90;;;;;24.70;100014.00;;;;5028638;28;20219;-79
2021/08/06 01:35:37;;;;;;;2.58;1.92;;;;;24.70;100005.00;;;;5039355;28;20235;-79
2021/08/06 01:38:04;;;;;;;2.75;1.52;;;;;24.70;100005.00;;;;5046529;28;20633;-79
2021/08/06 01:40:37;;;;;;;1.77;1.63;;;;;24.60;100010.00;;;;5048028;28;20215;-80
2021/08/06 01:43:12;;;;;;;2.72;1.90;;;;;24.60;100002.00;;;;5047633;28;20208;-79
2021/08/06 01:45:45;;;;;;;2.83;1.77;;;;;24.60;100004.00;;;;5041449;28;20556;-78
2021/08/06 01:48:17;;;;;;;1.75;1.63;;;;;24.60;100007.00;;;;5047367;28;20220;-79
2021/08/06 01:50:46;;;;;;;2.70;2.15;;;;;24.70;99998.00;;;;5046152;28;20200;-78
2021/08/06 01:53:17;;;;;;;2.08;1.77;;;;;24.70;100002.00;;;;5048382;28;20227;-79
2021/08/06 01:55:48;;;;;;;1.92;1.60;;;;;24.70;100008.00;;;;5047346;28;20223;-78
2021/08/06 01:58:17;;;;;;;2.97;1.92;;;;;24.70;100001.00;;;;5046281;28;20322;-79
2021/08/06 02:00:45;;;;;;;2.60;2.40;;;;;24.70;100001.00;;;;5043851;28;20185;-79
2021/08/06 02:03:14;;;;;;;3.70;1.58;;;;;24.70;99993.00;;;;5041312;28;20204;-76
2021/08/06 02:05:41;;;;;;;2.63;1.90;;;;;24.70;99989.00;;;;5045979;28;20284;-77
2021/08/06 02:08:10;;;;;;;2.30;1.70;;;;;24.70;99991.00;;;;5040764;28;20874;-76
2021/08/06 02:10:39;;;;;;;5.25;2.35;;;;;24.70;99986.00;;;;5031516;28;20208;-76
2021/08/06 02:13:06;;;;;;;2.33;2.03;;;;;24.70;99977.00;;;;5039392;28;20302;-77
2021/08/06 02:15:35;;;;;;;2.28;1.90;;;;;24.70;99981.00;;;;5043298;28;20203;-77
2021/08/06 02:18:03;;;;;;;2.70;2.00;;;;;24.70;99971.00;;;;5050601;28;20652;-76
2021/08/06 02:20:32;;;;;;;2.20;1.85;;;;;24.70;99975.00;;;;5039082;28;20235;-77
2021/08/06 02:23:00;;;;;;;2.55;2.13;;;;;24.70;99971.00;;;;5047415;28;20203;-77
2021/08/06 02:25:28;;;;;;;2.85;2.03;;;;;24.70;99968.00;;;;5051339;28;20203;-77
2021/08/06 02:27:56;;;;;;;2.88;2.10;;;;;24.70;99965.00;;;;5045143;28;20204;-76
2021/08/06 02:30:24;;;;;;;2.00;1.75;;;;;24.70;99967.00;;;;5031175;28;20212;-76
2021/08/06 02:32:53;;;;;;;2.13;1.73;;;;;24.70;99964.00;;;;5044825;28;20277;-76
2021/08/06 02:35:20;;;;;;;1.73;1.58;;;;;24.70;99965.00;;;;5031716;28;20243;-77
2021/08/06 02:37:49;;;;;;;3.05;2.20;;;;;24.70;99953.00;;;;5036195;28;20196;-76
2021/08/06 02:40:17;;;;;;;2.00;1.52;;;;;24.70;99952.00;;;;5036220;28;20195;-77
2021/08/06 02:42:44;;;;;;;1.95;1.73;;;;;24.70;99954.00;;;;5050650;28;20199;-77
2021/08/06 02:45:12;;;;;;;2.72;1.77;;;;;24.70;99951.00;;;;5038796;28;20224;-76
2021/08/06 02:47:39;;;;;;;2.10;1.55;;;;;24.70;99954.00;;;;5043942;28;20228;-77
2021/08/06 02:50:10;;;;;;;2.70;1.85;;;;;24.70;99955.00;;;;5048671;28;21006;-77
2021/08/06 02:52:37;;;;;;;2.80;1.20;;;;;24.70;99955.00;;;;5050015;28;20227;-77
2021/08/06 02:55:05;;;;;;;2.50;1.80;;;;;24.70;99953.00;;;;5049440;28;20195;-77
2021/08/06 02:57:32;;;;;;;2.30;1.33;;;;;24.70;99949.00;;;;5050632;28;20674;-77
2021/08/06 03:00:00;;;;;;;1.77;1.52;;;;;24.70;99950.00;;;;5040608;28;20207;-78
2021/08/06 03:02:27;;;;;;;1.63;1.25;;;;;24.70;99952.00;;;;5033277;28;20204;-76
2021/08/06 03:04:54;;;;;;;3.47;1.42;;;;;24.70;99957.00;;;;5031768;28;20230;-77
2021/08/06 03:07:23;;;;;;;4.43;1.65;;;;;24.70;99950.00;;;;5034844;28;20204;-78
2021/08/06 03:09:50;;;;;;;2.58;1.55;;;;;24.80;99949.00;;;;5030068;28;20208;-77
2021/08/06 03:12:18;;;;;;;1.52;1.42;;;;;24.80;99940.00;;;;5039359;28;20231;-78
2021/08/06 03:14:45;;;;;;;1.92;1.73;;;;;24.80;99941.00;;;;5048625;28;20196;-77
2021/08/06 03:17:12;;;;;;;1.73;1.63;;;;;24.70;99942.00;;;;5050346;28;20208;-77
2021/08/06 03:19:39;;;;;;;1.23;1.13;;;;;24.70;99936.00;;;;5044225;28;20203;-77
2021/08/06 03:22:07;;;;;;;2.17;1.33;;;;;24.70;99937.00;;;;5048197;28;20191;-77
2021/08/06 03:24:35;;;;;;;2.10;1.45;;;;;24.70;99934.00;;;;5050659;28;20208;-77
2021/08/06 03:27:03;;;;;;;1.45;1.17;;;;;24.70;99940.00;;;;5041952;28;20202;-77
2021/08/06 03:29:30;;;;;;;2.67;1.15;;;;;24.70;99943.00;;;;5050353;28;20224;-77
2021/08/06 03:31:57;;;;;;;1.45;1.23;;;;;24.70;99943.00;;;;5036314;28;20224;-77
2021/08/06 03:34:24;;;;;;;2.50;1.27;;;;;24.60;99940.00;;;;5049176;28;20231;-77
2021/08/06 03:36:52;;;;;;;2.08;1.20;;;;;24.60;99941.00;;;;5048204;28;20196;-78
2021/08/06 03:39:19;;;;;;;1.50;1.20;;;;;24.60;99943.00;;;;5040260;28;20214;-78
2021/08/06 03:41:47;;;;;;;1.20;0.85;;;;;24.60;99934.00;;;;5048977;28;20203;-77
2021/08/06 03:44:15;;;;;;;2.72;1.00;;;;;24.60;99939.00;;;;5049607;28;20195;-78
2021/08/06 03:46:42;;;;;;;0.80;0.75;;;;;24.50;99940.00;;;;5049969;28;20233;-77
2021/08/06 03:49:09;;;;;;;0.98;0.85;;;;;24.50;99941.00;;;;5031553;28;20195;-77
2021/08/06 03:51:36;;;;;;;0.82;0.82;;;;;24.50;99934.00;;;;5036189;28;20211;-77
2021/08/06 03:54:03;;;;;;;1.02;0.93;;;;;24.50;99936.00;;;;5048997;28;20203;-77
2021/08/06 03:56:31;;;;;;;1.33;0.80;;;;;24.50;99942.00;;;;5049445;28;20195;-77
2021/08/06 03:58:59;;;;;;;0.73;0.70;;;;;24.40;99936.00;;;;5047159;28;20681;-77
2021/08/06 04:01:26;;;;;;;1.50;1.23;;;;;24.40;99943.00;;;;5049132;28;20192;-77
2021/08/06 04:03:53;;;;;;;1.60;1.08;;;;;24.40;99937.00;;;;5042594;28;20392;-77
2021/08/06 04:06:21;;;;;;;0.80;0.80;;;;;24.40;99942.00;;;;5039127;28;20199;-77
2021/08/06 04:08:48;;;;;;;2.08;1.05;;;;;24.40;99932.00;;;;5029181;28;20207;-77
2021/08/06 04:11:15;;;;;;;0.90;0.80;;;;;24.40;99941.00;;;;5031216;28;20198;-77
2021/08/06 04:13:42;;;;;;;1.48;1.00;;;;;24.40;99940.00;;;;5048632;28;20318;-77
2021/08/06 04:16:11;;;;;;;0.93;0.85;;;;;24.40;99939.00;;;;5034990;28;20201;-78
2021/08/06 04:18:38;;;;;;;1.60;1.13;;;;;24.40;99934.00;;;;5029543;28;20658;-78
2021/08/06 04:21:06;;;;;;;1.25;1.15;;;;;24.40;99936.00;;;;5040174;28;20222;-77
2021/08/06 04:23:34;;;;;;;1.25;1.13;;;;;24.40;99936.00;;;;5029628;28;20204;-78
2021/08/06 04:26:01;;;;;;;1.02;0.88;;;;;24.40;99930.00;;;;5045436;28;20215;-77
2021/08/06 04:28:28;;;;;;;1.40;0.90;;;;;24.40;99937.00;;;;5049331;28;20579;-78
2021/08/06 04:31:00;;;;;;;2.30;1.17;;;;;24.40;99940.00;;;;5047248;28;20223;-77
2021/08/06 04:33:28;;;;;;;1.30;1.13;;;;;24.40;99941.00;;;;5049209;28;20227;-77
2021/08/06 04:35:56;;;;;;;2.05;0.70;;;;;24.40;99939.00;;;;5046168;28;20222;-77
2021/08/06 04:38:23;;;;;;;1.05;0.95;;;;;24.40;99938.00;;;;5048267;28;20211;-78
2021/08/06 04:40:50;;;;;;;1.17;1.00;;;;;24.30;99940.00;;;;5047997;28;20202;-77
2021/08/06 04:43:19;;;;;;;1.15;0.90;;;;;24.30;99943.00;;;;5030371;28;20192;-77
2021/08/06 04:45:47;;;;;;;1.42;0.82;;;;;24.30;99943.00;;;;5044779;28;20215;-77
2021/08/06 04:48:18;;;;;;;1.95;1.00;;;;;24.30;99945.00;;;;5046649;28;20192;-77
2021/08/06 04:50:47;;;;;;;1.92;0.90;;;;;24.30;99946.00;;;;5047931;28;20219;-77
2021/08/06 04:53:15;;;;;;;2.22;1.05;;;;;24.30;99944.00;;;;5048778;28;20595;-77
2021/08/06 04:55:42;;;;;;;0.82;0.75;;;;;24.20;99942.00;;;;5048637;28;20204;-78
2021/08/06 04:58:10;;;;;;;1.10;0.75;;;;;24.20;99943.00;;;;5037284;28;20200;-76
2021/08/06 05:00:37;;;;;;;1.20;0.80;;;;;24.20;99949.00;;;;5035058;28;20214;-77
2021/08/06 05:03:04;;;;;;;1.27;0.80;;;;;24.20;99946.00;;;;5028206;28;20204;-77
2021/08/06 05:05:31;;;;;;;1.23;0.77;;;;;24.30;99947.00;;;;5034788;28;20191;-77
2021/08/06 05:08:00;;;;;;;2.65;1.40;;;;;24.20;99950.00;;;;5047122;28;20466;-77
2021/08/06 05:10:27;;;;;;;1.23;1.00;;;;;24.30;99946.00;;;;5033309;28;20208;-78
2021/08/06 05:12:54;;;;;;;1.00;0.95;;;;;24.30;99945.00;;;;5034164;28;20216;-77
2021/08/06 05:15:22;;;;;;;1.25;1.13;;;;;24.30;99944.00;;;;5040826;28;20211;-78
2021/08/06 05:17:49;;;;;;;2.15;0.95;;;;;24.30;99945.00;;;;5043609;28;20219;-78
2021/08/06 05:20:17;;;;;;;2.05;0.88;;;;;24.30;99946.00;;;;5039632;28;20204;-79
2021/08/06 05:22:45;;;;;;;1.05;0.95;;;;;24.30;99946.00;;;;5033962;28;20741;-79
2021/08/06 05:25:13;;;;;;;1.33;1.08;;;;;24.30;99951.00;;;;5033888;28;20196;-79
2021/08/06 05:27:43;;;;;;;0.90;0.80;;;;;24.30;99947.00;;;;5031345;28;20200;-78
2021/08/06 05:30:11;;;;;;;2.58;0.90;;;;;24.30;99945.00;;;;5032792;28;20221;-79
2021/08/06 05:32:39;;;;;;;1.20;1.10;;;;;24.30;99954.00;;;;5038285;28;20227;-79
2021/08/06 05:35:06;;;;;;;0.98;0.82;;;;;24.30;99953.00;;;;5047779;28;20227;-79
2021/08/06 05:37:33;;;;;;;0.90;0.80;;;;;24.30;99953.00;;;;5045838;28;20518;-79
2021/08/06 05:40:01;;;;;;;1.10;0.80;;;;;24.30;99954.00;;;;5046371;28;20719;-79
2021/08/06 05:42:29;;;;;;;1.30;0.80;;;;;24.30;99955.00;;;;5049620;28;20207;-79
2021/08/06 05:44:56;;;;;;;1.00;0.90;;;;;24.30;99957.00;;;;5034607;28;20196;-79
2021/08/06 05:47:24;;;;;;;1.92;0.70;;;;;24.30;99958.00;;;;5035671;28;20251;-78
2021/08/06 05:49:51;;;;;;;0.82;0.80;;;;;24.30;99954.00;;;;5045184;28;20203;-79
2021/08/06 05:52:19;;;;;;;1.27;1.17;;;;;24.30;99958.00;;;;5044486;28;20200;-79
2021/08/06 05:54:46;;;;;;;1.02;0.90;;;;;24.30;99961.00;;;;5051502;28;20204;-78
2021/08/06 05:57:13;;;;;;;1.33;1.00;;;;;24.30;99959.00;;;;5038797;28;20203;-79
2021/08/06 05:59:41;;;;;;;0.90;0.82;;;;;24.30;99963.00;;;;5041048;28;20199;-79
2021/08/06 06:02:09;;;;;;;1.80;1.60;;;;;24.30;99962.00;;;;5045635;28;20217;-79
2021/08/06 06:04:36;;;;;;;1.15;1.05;;;;;24.30;99960.00;;;;5043190;28;20204;-79
2021/08/06 06:07:03;;;;;;;1.52;1.10;;;;;24.30;99962.00;;;;5041079;28;20207;-79
2021/08/06 06:09:31;;;;;;;1.58;1.20;;;;;24.30;99968.00;;;;5051726;28;20202;-79
2021/08/06 06:11:58;;;;;;;1.00;0.90;;;;;24.30;99965.00;;;;5050215;28;20246;-78
2021/08/06 06:14:25;;;;;;;1.85;1.40;;;;;24.40;99969.00;;;;5048520;28;20231;-79
2021/08/06 06:16:54;;;;;;;1.10;1.00;;;;;24.40;99973.00;;;;5050631;28;20632;-79
2021/08/06 06:19:21;;;;;;;1.88;1.27;;;;;24.40;99974.00;;;;5051519;28;20204;-79
2021/08/06 06:21:48;;;;;;;3.53;1.25;;;;;24.50;99973.00;;;;5051158;28;20200;-79
2021/08/06 06:24:15;;;;;;;1.10;1.00;;;;;24.50;99977.00;;;;5045981;28;20196;-79
2021/08/06 06:26:42;;;;;;;1.40;1.30;;;;;24.60;99977.00;;;;5045563;28;20214;-79
2021/08/06 06:29:10;;;;;;;1.52;1.20;;;;;24.60;99979.00;;;;5048957;28;20203;-79
2021/08/06 06:31:37;;;;;;;1.90;1.30;;;;;24.70;99971.00;;;;5050456;28;20692;-79
2021/08/06 06:34:06;;;;;;;1.13;1.02;;;;;24.70;99974.00;;;;5049889;28;20652;-78
2021/08/06 06:36:33;;;;;;;1.17;1.05;;;;;24.70;99969.00;;;;5042931;28;20199;-80
2021/08/06 06:39:00;;;;;;;3.33;1.33;;;;;24.80;99981.00;;;;5050247;28;20200;-79
2021/08/06 06:41:27;;;;;;;2.95;1.40;;;;;24.80;99980.00;;;;5040551;28;20200;-79
2021/08/06 06:43:55;;;;;;;1.38;1.10;;;;;24.90;99977.00;;;;5031869;28;20196;-79
2021/08/06 06:46:22;;;;;;;1.38;1.27;;;;;24.90;99977.00;;;;5044253;28;20203;-79
2021/08/06 06:48:49;;;;;;;1.50;1.38;;;;;24.90;99981.00;;;;5041383;28;20195;-79
2021/08/06 06:51:18;;;;;;;1.38;1.23;;;;;24.90;99981.00;;;;5034091;28;20196;-79
2021/08/06 06:53:46;;;;;;;2.30;1.83;;;;;24.90;99978.00;;;;5035312;28;20223;-79
2021/08/06 06:56:13;;;;;;;1.50;1.40;;;;;24.90;99979.00;;;;5039450;28;20207;-79
2021/08/06 06:58:40;;;;;;;1.88;1.55;;;;;24.90;99984.00;;;;5035719;28;20202;-80
2021/08/06 07:01:08;;;;;;;2.65;1.70;;;;;24.90;99978.00;;;;5044476;28;20210;-79
2021/08/06 07:03:35;;;;;;;1.60;1.50;;;;;24.90;99984.00;;;;5033070;28;20196;-79
2021/08/06 07:06:02;;;;;;;2.25;1.67;;;;;24.90;99990.00;;;;5038810;28;20412;-79
2021/08/06 07:08:31;;;;;;;3.13;1.67;;;;;24.80;99998.00;;;;5046172;28;20191;-79
2021/08/06 07:10:58;;;;;;;2.33;1.48;;;;;24.80;99988.00;;;;5039362;28;20204;-75
2021/08/06 07:13:26;;;;;;;2.05;1.38;;;;;24.80;99993.00;;;;5049375;28;20235;-76
2021/08/06 07:15:53;;;;;;;1.80;1.70;;;;;24.80;99991.00;;;;5048351;28;21011;-75
2021/08/06 07:18:20;;;;;;;1.92;1.50;;;;;24.90;100001.00;;;;5041965;28;20205;-76
2021/08/06 07:20:47;;;;;;;1.38;1.27;;;;;24.90;100005.00;;;;5043054;28;20199;-76
2021/08/06 07:23:15;;;;;;;1.90;1.75;;;;;24.90;100005.00;;;;5049917;28;20207;-76
2021/08/06 07:25:43;;;;;;;2.60;1.70;;;;;24.80;100003.00;;;;5048859;28;20192;-76
2021/08/06 07:28:11;;;;;;;2.90;1.90;;;;;24.90;100010.00;;;;5047830;28;20192;-77
2021/08/06 07:30:38;;;;;;;2.60;1.95;;;;;24.80;100009.00;;;;5037557;28;20511;-77
2021/08/06 07:33:05;;;;;;;3.45;1.85;;;;;24.80;100005.00;;;;5034546;28;20246;-77
2021/08/06 07:35:33;;;;;;;2.22;1.80;;;;;24.80;100010.00;;;;5048585;28;20220;-77
2021/08/06 07:38:00;;;;;;;2.03;1.77;;;;;24.90;100014.00;;;;5047967;28;20298;-79
2021/08/06 07:40:28;;;;;;;2.30;1.67;;;;;24.90;100016.00;;;;5048352;28;20199;-79
2021/08/06 07:42:56;;;;;;;3.70;1.73;;;;;24.90;100010.00;;;;5049793;28;20587;-79
2021/08/06 07:45:25;;;;;;;3.05;1.83;;;;;24.90;100016.00;;;;5047677;28;20210;-79
2021/08/06 07:47:53;;;;;;;4.82;1.77;;;;;25.00;100004.00;;;;5036964;28;20196;-79
2021/08/06 07:50:20;;;;;;;2.25;1.80;;;;;25.00;100012.00;;;;5049203;28;20198;-79
2021/08/06 07:52:47;;;;;;;2.75;2.00;;;;;25.00;100008.00;;;;5043000;28;20196;-79
2021/08/06 07:55:16;;;;;;;2.33;1.83;;;;;25.10;100004.00;;;;5040071;28;20202;-79
2021/08/06 07:57:43;;;;;;;3.00;1.73;;;;;25.20;100002.00;;;;5041428;28;20227;-78
2021/08/06 08:00:13;;;;;;;3.83;1.60;;;;;25.20;100008.00;;;;5035283;28;20192;-78
2021/08/06 08:02:40;;;;;;;2.72;1.83;;;;;25.30;100012.00;;;;5030106;28;20196;-78
2021/08/06 08:05:09;;;;;;;2.92;1.65;;;;;25.50;100007.00;;;;5044730;28;20568;-79
2021/08/06 08:07:36;;;;;;;2.25;1.70;;;;;25.60;100011.00;;;;5048670;28;20188;-78
2021/08/06 08:10:04;;;;;;;3.75;2.15;;;;;25.70;100009.00;;;;5034158;28;20557;-78
2021/08/06 08:12:31;;;;;;;2.80;2.05;;;;;25.80;100007.00;;;;5037395;28;20690;-78
2021/08/06 08:14:58;;;;;;;3.88;1.98;;;;;25.90;100013.00;;;;5048541;28;20226;-79
2021/08/06 08:17:27;;;;;;;2.55;2.15;;;;;26.00;100015.00;;;;5039837;28;20195;-79
2021/08/06 08:19:54;;;;;;;2.00;1.42;;;;;26.20;100019.00;;;;5038615;28;20199;-78
2021/08/06 08:22:21;;;;;;;2.90;1.77;;;;;26.30;100017.00;;;;5038223;28;20192;-80
2021/08/06 08:24:49;;;;;;;1.83;1.40;;;;;26.40;100026.00;;;;5038834;28;20287;-79
2021/08/06 08:27:19;;;;;;;4.28;1.95;;;;;26.50;100029.00;;;;5037349;28;20199;-81
2021/08/06 08:29:47;;;;;;;1.60;1.48;;;;;26.50;100013.00;;;;5040632;28;20244;-79
2021/08/06 08:32:15;;;;;;;3.33;1.80;;;;;26.50;100018.00;;;;5038578;28;20307;-80
2021/08/06 08:34:44;;;;;;;1.40;1.30;;;;;26.50;100015.00;;;;5041057;28;20261;-79
2021/08/06 08:37:13;;;;;;;2.53;1.50;;;;;26.60;100007.00;;;;5041944;28;20203;-78
2021/08/06 08:39:40;;;;;;;3.63;2.05;;;;;26.70;100019.00;;;;5036779;28;20565;-78
2021/08/06 08:42:07;;;;;;;1.75;1.40;;;;;26.70;100020.00;;;;5045685;28;20200;-79
2021/08/06 08:44:36;;;;;;;1.52;1.20;;;;;26.80;100014.00;;;;5037875;28;20653;-79
2021/08/06 08:47:05;;;;;;;1.92;1.10;;;;;26.80;100028.00;;;;5035430;28;20200;-79
2021/08/06 08:49:34;;;;;;;1.83;1.20;;;;;26.70;100026.00;;;;5040551;28;20183;-79
2021/08/06 08:52:03;;;;;;;1.73;1.05;;;;;26.70;100028.00;;;;5027941;28;20207;-79
2021/08/06 08:54:31;;;;;;;3.13;1.60;;;;;26.70;100020.00;;;;5037370;28;20226;-79
2021/08/06 08:56:58;;;;;;;3.45;1.35;;;;;26.60;100031.00;;;;5033927;28;20202;-79
2021/08/06 08:59:25;;;;;;;2.22;1.20;;;;;26.60;100023.00;;;;5038757;28;20227;-81
2021/08/06 09:01:52;;;;;;;1.90;1.20;;;;;26.60;100019.00;;;;5040566;28;20568;-80
2021/08/06 09:04:23;;;;;;;6.10;1.40;;;;;26.60;100021.00;;;;5048934;28;20206;-80
2021/08/06 09:06:51;;;;;;;2.50;1.10;;;;;26.70;100013.00;;;;5041448;28;20202;-80
2021/08/06 09:09:22;;;;;;;2.75;1.27;;;;;26.80;100021.00;;;;5048950;28;20566;-80
2021/08/06 09:11:50;;;;;;;1.23;1.00;;;;;26.90;100017.00;;;;5047332;28;20605;-80
2021/08/06 09:14:24;;;;;;;1.30;1.10;;;;;27.00;100010.00;;;;5047586;28;20226;-80
2021/08/06 09:16:56;;;;;;;1.98;1.00;;;;;27.10;100010.00;;;;5050130;28;20223;-80
2021/08/06 09:19:24;;;;;;;5.80;1.48;;;;;27.20;100013.00;;;;5051112;28;20195;-81
2021/08/06 09:21:51;;;;;;;2.55;1.23;;;;;27.30;100015.00;;;;5050137;28;20223;-81
2021/08/06 09:24:20;;;;;;;1.83;0.90;;;;;27.30;100016.00;;;;5040391;28;20204;-79
2021/08/06 09:26:47;;;;;;;1.55;0.90;;;;;27.40;100022.00;;;;5049671;28;20188;-81
2021/08/06 09:29:17;;;;;;;1.95;1.23;;;;;27.40;100022.00;;;;5050307;28;20207;-79
2021/08/06 09:31:57;;;;;;;1.55;1.25;;;;;27.20;100025.00;;;;5046477;28;20239;-80
2021/08/06 09:34:25;;;;;;;3.00;1.27;;;;;27.30;100031.00;;;;5045566;28;20247;-79
2021/08/06 09:37:02;;;;;;;4.07;1.50;;;;;27.20;100032.00;;;;5051823;28;20278;-80
2021/08/06 09:39:36;;;;;;;1.77;1.13;;;;;27.10;100040.00;;;;5050047;28;20199;-79
2021/08/06 09:42:04;;;;;;;2.50;1.25;;;;;27.10;100048.00;;;;5051359;28;20272;-81
2021/08/06 09:44:32;;;;;;;2.95;1.50;;;;;27.00;100045.00;;;;5052427;28;20204;-80
2021/08/06 09:47:15;;;;;;;3.67;1.27;;;;;26.90;100046.00;;;;5045086;28;20200;-80
2021/08/06 09:49:44;;;;;;;2.50;1.40;;;;;26.80;100049.00;;;;5047038;28;20377;-80
2021/08/06 09:52:12;;;;;;;2.42;1.65;;;;;26.80;100054.00;;;;5050604;28;20254;-80
2021/08/06 09:54:47;;;;;;;2.00;1.50;;;;;26.70;100050.00;;;;5035852;28;20228;-79
2021/08/06 09:57:15;;;;;;;2.13;1.73;;;;;26.70;100049.00;;;;5041951;28;20689;-80
2021/08/06 09:59:43;;;;;;;3.00;1.58;;;;;26.70;100047.00;;;;5042365;28;20191;-80
2021/08/06 10:02:21;;;;;;;4.32;2.40;;;;;26.80;100033.00;;;;5050933;28;20200;-80
2021/08/06 10:05:03;;;;;;;2.63;1.80;;;;;26.90;100043.00;;;;5047724;28;20902;-79
2021/08/06 10:07:34;;;;;;;2.30;2.10;;;;;27.10;100042.00;;;;5047181;28;20208;-79
2021/08/06 10:10:06;;;;;;;3.33;1.38;;;;;27.10;100034.00;;;;5046746;28;20207;-80
2021/08/06 10:12:34;;;;;;;4.22;1.45;;;;;27.10;100045.00;;;;5037779;28;20201;-79
2021/08/06 10:15:03;;;;;;;2.97;1.70;;;;;27.20;100044.00;;;;5038015;28;20702;-79
2021/08/06 10:17:31;;;;;;;1.85;1.42;;;;;27.20;100047.00;;;;5045841;28;20226;-79
2021/08/06 10:19:58;;;;;;;1.80;1.45;;;;;27.20;100047.00;;;;5045439;28;20187;-79
2021/08/06 10:22:26;;;;;;;1.80;1.20;;;;;27.20;100062.00;;;;5043639;28;20206;-78
2021/08/06 10:24:54;;;;;;;2.17;1.70;;;;;27.20;100055.00;;;;5039456;28;20203;-79
2021/08/06 10:27:25;;;;;;;2.05;1.45;;;;;27.10;100058.00;;;;5034698;28;20693;-79
2021/08/06 10:29:58;;;;;;;1.95;1.40;;;;;27.10;100054.00;;;;5046651;28;20215;-79
2021/08/06 10:32:25;;;;;;;1.67;1.20;;;;;27.20;100054.00;;;;5042947;28;20196;-80
2021/08/06 10:35:23;;;;;;;1.95;1.48;;;;;27.00;100061.00;;;;5042249;28;20702;-79
2021/08/06 10:37:57;;;;;;;1.77;1.30;;;;;27.10;100060.00;;;;5044931;28;20200;-79
2021/08/06 10:41:12;;;;;;;2.70;1.25;;;;;27.00;100068.00;;;;5045689;28;20216;-79
2021/08/06 10:43:51;;;;;;;1.92;1.15;;;;;27.00;100064.00;;;;5041080;28;20681;-80
2021/08/06 10:46:20;;;;;;;1.85;1.17;;;;;27.10;100058.00;;;;5036378;28;20192;-80
2021/08/06 10:48:49;;;;;;;2.75;1.10;;;;;27.20;100053.00;;;;5037744;28;20291;-80
2021/08/06 10:51:29;;;;;;;1.17;1.00;;;;;27.20;100049.00;;;;5044756;28;20211;-80
2021/08/06 10:54:24;;;;;;;1.50;1.40;;;;;27.30;100049.00;;;;5046833;28;20203;-81
2021/08/06 10:57:11;;;;;;;1.55;1.17;;;;;27.50;100031.00;;;;5044986;28;20674;-81
2021/08/06 10:59:41;;;;;;;2.45;1.73;;;;;27.70;100037.00;;;;5048306;28;20191;-80
2021/08/06 11:02:47;;;;;;;1.60;1.25;;;;;27.70;100043.00;;;;5036712;28;20553;-80
2021/08/06 11:05:35;;;;;;;1.00;0.90;;;;;27.90;100031.00;;;;5038584;28;20192;-80
2021/08/06 11:08:24;;;;;;;1.10;1.00;;;;;28.10;100038.00;;;;5035489;28;20195;-80
2021/08/06 11:10:53;;;;;;;2.05;1.10;;;;;28.20;100035.00;;;;5034791;28;20224;-80
2021/08/06 11:13:53;;;;;;;1.45;1.35;;;;;28.20;100035.00;;;;5036019;28;20200;-80
2021/08/06 11:16:22;;;;;;;2.40;1.45;;;;;28.30;100029.00;;;;5039735;28;20200;-81
2021/08/06 11:18:50;;;;;;;1.73;1.10;;;;;28.30;100047.00;;;;5037644;28;20192;-81
2021/08/06 11:21:21;;;;;;;1.48;0.88;;;;;28.30;100043.00;;;;5033371;28;20224;-79
2021/08/06 11:23:57;;;;;;;2.45;1.00;;;;;28.10;100035.00;;;;5038030;28;20291;-78
2021/08/06 11:26:25;;;;;;;2.53;1.40;;;;;28.10;100045.00;;;;5044535;28;20200;-79
2021/08/06 11:28:56;;;;;;;1.60;0.95;;;;;28.10;100041.00;;;;5039380;28;20659;-79
2021/08/06 11:31:25;;;;;;;2.63;1.17;;;;;28.00;100038.00;;;;5030544;28;20316;-80
2021/08/06 11:34:01;;;;;;;1.23;0.90;;;;;27.90;100049.00;;;;5029710;28;20243;-78
2021/08/06 11:36:28;;;;;;;1.15;0.80;;;;;27.80;100050.00;;;;5046609;28;20199;-78
2021/08/06 11:39:02;;;;;;;2.15;1.00;;;;;27.80;100049.00;;;;5030015;28;20231;-78
2021/08/06 11:41:30;;;;;;;1.13;1.02;;;;;27.70;100058.00;;;;5030108;28;20670;-79
2021/08/06 11:43:58;;;;;;;3.55;1.65;;;;;27.60;100061.00;;;;5045287;28;20203;-79
2021/08/06 11:46:28;;;;;;;1.50;0.80;;;;;27.50;100078.00;;;;5049635;28;20584;-77
2021/08/06 11:48:59;;;;;;;1.45;0.80;;;;;27.30;100081.00;;;;5048831;28;20208;-77
2021/08/06 11:51:27;;;;;;;3.65;1.00;;;;;27.20;100082.00;;;;5056008;28;20200;-77
2021/08/06 11:53:54;;;;;;;0.98;0.60;;;;;27.00;100065.00;;;;5058957;28;20210;-77
2021/08/06 11:56:23;;;;;;;3.85;0.80;;;;;26.90;100066.00;;;;5060300;28;20220;-76
2021/08/06 11:58:51;;;;;;;1.90;0.82;;;;;26.80;100064.00;;;;5053767;28;20200;-77
2021/08/06 12:01:21;;;;;;;0.90;0.80;;;;;26.60;100073.00;;;;5059514;28;20207;-76
2021/08/06 12:03:51;;;;;;;1.27;0.82;;;;;26.50;100087.00;;;;5054848;28;20290;-76
2021/08/06 12:06:19;;;;;;;1.58;1.13;;;;;26.40;100101.00;;;;5050677;28;20210;-75
2021/08/06 12:08:48;;;;;;;1.63;0.70;;;;;26.20;100081.00;;;;5033412;28;20200;-74
2021/08/06 12:11:17;;;;;;;1.42;0.50;;;;;26.10;100077.00;;;;5039810;28;20392;-75
2021/08/06 12:13:50;;;;;;;0.75;0.50;;;;;26.00;100068.00;;;;5049257;28;20192;-75
2021/08/06 12:16:19;;;;;;;0.77;0.68;;;;;25.90;100061.00;;;;5044810;28;20216;-77
2021/08/06 12:18:50;;;;;;;1.10;0.90;;;;;26.00;100060.00;;;;5047035;28;20207;-77
2021/08/06 12:21:20;;;;;;;0.80;0.60;;;;;26.00;100062.00;;;;5037630;28;20200;-77